sensor_id;sensor_type;location;lat;lon;timestamp;P1;durP1;ratioP1;P2;durP2;ratioP2
59766;SDS011;46248;58.364;25.582;2022-10-16T00:00:43;9.77;;;6.93;;
59766;SDS011;46248;58.364;25.582;2022-10-16T00:04:08;13.57;;;7.63;;
59766;SDS011;46248;58.364;25.582;2022-10-16T00:07:30;12.77;;;7.78;;
59766;SDS011;46248;58.364;25.582;2022-10-16T00:10:51;10.77;;;7.13;;
59766;SDS011;46248;58.364;25.582;2022-10-16T00:14:14;12.80;;;7.07;;
59766;SDS011;46248;58.364;25.582;2022-10-16T00:17:36;13.80;;;6.88;;
59766;SDS011;46248;58.364;25.582;2022-10-16T00:21:02;12.80;;;8.05;;
59766;SDS011;46248;58.364;25.582;2022-10-16T00:24:25;14.70;;;7.80;;
59766;SDS011;46248;58.364;25.582;2022-10-16T00:27:47;14.55;;;7.85;;
59766;SDS011;46248;58.364;25.582;2022-10-16T00:31:10;16.27;;;7.95;;
59766;SDS011;46248;58.364;25.582;2022-10-16T00:34:33;11.70;;;7.55;;
59766;SDS011;46248;58.364;25.582;2022-10-16T00:37:56;13.57;;;8.30;;
59766;SDS011;46248;58.364;25.582;2022-10-16T00:41:19;14.63;;;8.85;;
59766;SDS011;46248;58.364;25.582;2022-10-16T00:44:43;17.52;;;7.90;;
59766;SDS011;46248;58.364;25.582;2022-10-16T00:48:10;15.35;;;8.60;;
59766;SDS011;46248;58.364;25.582;2022-10-16T00:51:35;11.52;;;7.07;;
59766;SDS011;46248;58.364;25.582;2022-10-16T00:55:00;14.13;;;7.70;;
59766;SDS011;46248;58.364;25.582;2022-10-16T00:58:24;11.30;;;7.68;;
59766;SDS011;46248;58.364;25.582;2022-10-16T01:01:46;12.65;;;8.02;;
59766;SDS011;46248;58.364;25.582;2022-10-16T01:05:08;16.65;;;9.40;;
59766;SDS011;46248;58.364;25.582;2022-10-16T01:08:32;15.10;;;8.10;;
59766;SDS011;46248;58.364;25.582;2022-10-16T01:12:04;17.17;;;8.57;;
59766;SDS011;46248;58.364;25.582;2022-10-16T01:15:30;13.70;;;8.40;;
59766;SDS011;46248;58.364;25.582;2022-10-16T01:19:05;16.02;;;8.90;;
59766;SDS011;46248;58.364;25.582;2022-10-16T01:22:34;12.50;;;8.13;;
59766;SDS011;46248;58.364;25.582;2022-10-16T01:26:13;14.63;;;8.75;;
59766;SDS011;46248;58.364;25.582;2022-10-16T01:29:47;15.05;;;8.15;;
59766;SDS011;46248;58.364;25.582;2022-10-16T01:33:14;11.60;;;7.63;;
59766;SDS011;46248;58.364;25.582;2022-10-16T01:36:41;15.30;;;9.27;;
59766;SDS011;46248;58.364;25.582;2022-10-16T01:40:08;12.48;;;7.35;;
59766;SDS011;46248;58.364;25.582;2022-10-16T01:43:33;18.38;;;7.95;;
59766;SDS011;46248;58.364;25.582;2022-10-16T01:47:02;16.80;;;7.55;;
59766;SDS011;46248;58.364;25.582;2022-10-16T01:50:24;13.02;;;7.93;;
59766;SDS011;46248;58.364;25.582;2022-10-16T01:53:49;15.93;;;9.43;;
59766;SDS011;46248;58.364;25.582;2022-10-16T01:57:15;12.70;;;8.20;;
59766;SDS011;46248;58.364;25.582;2022-10-16T02:00:40;14.13;;;7.35;;
59766;SDS011;46248;58.364;25.582;2022-10-16T02:04:09;14.15;;;9.73;;
59766;SDS011;46248;58.364;25.582;2022-10-16T02:07:40;15.52;;;8.60;;
59766;SDS011;46248;58.364;25.582;2022-10-16T02:11:02;12.43;;;7.68;;
59766;SDS011;46248;58.364;25.582;2022-10-16T02:14:25;12.10;;;7.32;;
59766;SDS011;46248;58.364;25.582;2022-10-16T02:17:47;14.13;;;8.35;;
59766;SDS011;46248;58.364;25.582;2022-10-16T02:21:12;16.20;;;9.32;;
59766;SDS011;46248;58.364;25.582;2022-10-16T02:24:39;13.05;;;8.27;;
59766;SDS011;46248;58.364;25.582;2022-10-16T02:28:11;13.00;;;7.53;;
59766;SDS011;46248;58.364;25.582;2022-10-16T02:31:38;12.50;;;8.32;;
59766;SDS011;46248;58.364;25.582;2022-10-16T02:35:05;11.82;;;7.53;;
59766;SDS011;46248;58.364;25.582;2022-10-16T02:38:30;13.88;;;8.07;;
59766;SDS011;46248;58.364;25.582;2022-10-16T02:41:53;15.68;;;8.55;;
59766;SDS011;46248;58.364;25.582;2022-10-16T02:45:15;13.68;;;8.13;;
59766;SDS011;46248;58.364;25.582;2022-10-16T02:48:36;14.75;;;8.77;;
59766;SDS011;46248;58.364;25.582;2022-10-16T02:51:59;15.43;;;7.93;;
59766;SDS011;46248;58.364;25.582;2022-10-16T02:55:22;14.15;;;8.82;;
59766;SDS011;46248;58.364;25.582;2022-10-16T02:58:44;12.88;;;7.75;;
59766;SDS011;46248;58.364;25.582;2022-10-16T03:02:06;12.13;;;8.05;;
59766;SDS011;46248;58.364;25.582;2022-10-16T03:05:28;13.35;;;8.63;;
59766;SDS011;46248;58.364;25.582;2022-10-16T03:08:50;14.35;;;7.45;;
59766;SDS011;46248;58.364;25.582;2022-10-16T03:12:13;14.85;;;8.23;;
59766;SDS011;46248;58.364;25.582;2022-10-16T03:15:35;12.40;;;7.70;;
59766;SDS011;46248;58.364;25.582;2022-10-16T03:18:57;16.20;;;8.48;;
59766;SDS011;46248;58.364;25.582;2022-10-16T03:22:19;12.63;;;8.50;;
59766;SDS011;46248;58.364;25.582;2022-10-16T03:25:41;15.15;;;8.48;;
59766;SDS011;46248;58.364;25.582;2022-10-16T03:29:04;13.70;;;8.00;;
59766;SDS011;46248;58.364;25.582;2022-10-16T03:32:26;12.80;;;8.18;;
59766;SDS011;46248;58.364;25.582;2022-10-16T03:35:56;12.90;;;7.82;;
59766;SDS011;46248;58.364;25.582;2022-10-16T03:44:06;18.08;;;10.77;;
59766;SDS011;46248;58.364;25.582;2022-10-16T03:47:28;33.00;;;16.63;;
59766;SDS011;46248;58.364;25.582;2022-10-16T03:50:53;18.80;;;12.20;;
59766;SDS011;46248;58.364;25.582;2022-10-16T03:54:15;15.55;;;10.45;;
59766;SDS011;46248;58.364;25.582;2022-10-16T03:57:37;17.50;;;9.88;;
59766;SDS011;46248;58.364;25.582;2022-10-16T04:01:00;19.75;;;12.38;;
59766;SDS011;46248;58.364;25.582;2022-10-16T04:04:23;16.63;;;10.00;;
59766;SDS011;46248;58.364;25.582;2022-10-16T04:07:45;20.10;;;11.18;;
59766;SDS011;46248;58.364;25.582;2022-10-16T04:14:32;16.70;;;9.68;;
59766;SDS011;46248;58.364;25.582;2022-10-16T04:17:56;17.02;;;9.27;;
59766;SDS011;46248;58.364;25.582;2022-10-16T04:21:18;17.95;;;9.95;;
59766;SDS011;46248;58.364;25.582;2022-10-16T04:24:40;16.17;;;9.48;;
59766;SDS011;46248;58.364;25.582;2022-10-16T04:28:03;18.77;;;10.30;;
59766;SDS011;46248;58.364;25.582;2022-10-16T04:31:30;19.35;;;10.02;;
59766;SDS011;46248;58.364;25.582;2022-10-16T04:34:53;15.90;;;8.60;;
59766;SDS011;46248;58.364;25.582;2022-10-16T04:38:15;15.95;;;8.65;;
59766;SDS011;46248;58.364;25.582;2022-10-16T04:41:37;20.58;;;12.40;;
59766;SDS011;46248;58.364;25.582;2022-10-16T04:44:59;22.52;;;13.07;;
59766;SDS011;46248;58.364;25.582;2022-10-16T04:48:21;16.60;;;10.50;;
59766;SDS011;46248;58.364;25.582;2022-10-16T04:51:45;18.05;;;10.05;;
59766;SDS011;46248;58.364;25.582;2022-10-16T04:55:07;22.65;;;10.60;;
59766;SDS011;46248;58.364;25.582;2022-10-16T04:58:29;21.63;;;11.27;;
59766;SDS011;46248;58.364;25.582;2022-10-16T05:01:51;19.13;;;11.35;;
59766;SDS011;46248;58.364;25.582;2022-10-16T05:08:49;26.45;;;15.63;;
59766;SDS011;46248;58.364;25.582;2022-10-16T06:11:53;26.58;;;15.57;;
59766;SDS011;46248;58.364;25.582;2022-10-16T06:15:15;24.45;;;11.38;;
59766;SDS011;46248;58.364;25.582;2022-10-16T06:18:37;28.20;;;14.57;;
59766;SDS011;46248;58.364;25.582;2022-10-16T06:22:00;29.50;;;17.23;;
59766;SDS011;46248;58.364;25.582;2022-10-16T06:25:22;26.73;;;13.68;;
59766;SDS011;46248;58.364;25.582;2022-10-16T06:28:46;23.23;;;12.25;;
59766;SDS011;46248;58.364;25.582;2022-10-16T06:32:08;24.00;;;13.13;;
59766;SDS011;46248;58.364;25.582;2022-10-16T06:35:30;24.58;;;12.57;;
59766;SDS011;46248;58.364;25.582;2022-10-16T06:38:52;28.17;;;13.75;;
59766;SDS011;46248;58.364;25.582;2022-10-16T06:42:14;24.75;;;12.52;;
59766;SDS011;46248;58.364;25.582;2022-10-16T06:45:38;21.42;;;11.05;;
59766;SDS011;46248;58.364;25.582;2022-10-16T06:49:00;24.08;;;12.50;;
59766;SDS011;46248;58.364;25.582;2022-10-16T06:52:22;28.20;;;14.43;;
59766;SDS011;46248;58.364;25.582;2022-10-16T06:55:44;28.88;;;13.48;;
59766;SDS011;46248;58.364;25.582;2022-10-16T06:59:06;25.25;;;12.68;;
59766;SDS011;46248;58.364;25.582;2022-10-16T07:02:30;30.38;;;13.55;;
59766;SDS011;46248;58.364;25.582;2022-10-16T07:05:52;27.70;;;13.20;;
59766;SDS011;46248;58.364;25.582;2022-10-16T07:09:14;27.13;;;12.77;;
59766;SDS011;46248;58.364;25.582;2022-10-16T07:12:36;28.55;;;12.88;;
59766;SDS011;46248;58.364;25.582;2022-10-16T07:16:03;38.55;;;15.68;;
59766;SDS011;46248;58.364;25.582;2022-10-16T07:19:27;25.55;;;12.85;;
59766;SDS011;46248;58.364;25.582;2022-10-16T07:22:57;33.20;;;16.80;;
59766;SDS011;46248;58.364;25.582;2022-10-16T07:30:34;31.83;;;14.32;;
59766;SDS011;46248;58.364;25.582;2022-10-16T07:33:57;29.92;;;14.98;;
59766;SDS011;46248;58.364;25.582;2022-10-16T07:37:21;32.05;;;14.93;;
59766;SDS011;46248;58.364;25.582;2022-10-16T07:40:44;28.90;;;12.50;;
59766;SDS011;46248;58.364;25.582;2022-10-16T07:44:06;37.72;;;15.50;;
59766;SDS011;46248;58.364;25.582;2022-10-16T07:47:28;31.92;;;13.93;;
59766;SDS011;46248;58.364;25.582;2022-10-16T07:50:52;32.67;;;13.45;;
59766;SDS011;46248;58.364;25.582;2022-10-16T07:54:19;36.13;;;16.02;;
59766;SDS011;46248;58.364;25.582;2022-10-16T07:57:41;32.85;;;15.25;;
59766;SDS011;46248;58.364;25.582;2022-10-16T08:01:04;35.15;;;14.98;;
59766;SDS011;46248;58.364;25.582;2022-10-16T08:04:27;33.70;;;15.30;;
59766;SDS011;46248;58.364;25.582;2022-10-16T08:07:49;29.27;;;15.38;;
59766;SDS011;46248;58.364;25.582;2022-10-16T08:11:15;37.80;;;14.57;;
59766;SDS011;46248;58.364;25.582;2022-10-16T08:14:37;34.53;;;15.55;;
59766;SDS011;46248;58.364;25.582;2022-10-16T08:18:05;37.58;;;17.45;;
59766;SDS011;46248;58.364;25.582;2022-10-16T08:21:26;44.25;;;18.63;;
59766;SDS011;46248;58.364;25.582;2022-10-16T08:24:48;35.53;;;13.90;;
59766;SDS011;46248;58.364;25.582;2022-10-16T08:28:12;31.50;;;15.32;;
59766;SDS011;46248;58.364;25.582;2022-10-16T08:31:33;38.15;;;16.08;;
59766;SDS011;46248;58.364;25.582;2022-10-16T08:34:55;31.38;;;14.43;;
59766;SDS011;46248;58.364;25.582;2022-10-16T08:38:17;39.30;;;17.55;;
59766;SDS011;46248;58.364;25.582;2022-10-16T08:41:50;38.53;;;17.42;;
59766;SDS011;46248;58.364;25.582;2022-10-16T08:45:47;43.42;;;19.77;;
59766;SDS011;46248;58.364;25.582;2022-10-16T08:49:20;40.30;;;15.95;;
59766;SDS011;46248;58.364;25.582;2022-10-16T08:52:44;36.80;;;15.90;;
59766;SDS011;46248;58.364;25.582;2022-10-16T08:56:08;35.45;;;15.80;;
59766;SDS011;46248;58.364;25.582;2022-10-16T08:59:30;41.67;;;17.17;;
59766;SDS011;46248;58.364;25.582;2022-10-16T09:02:55;34.40;;;14.52;;
59766;SDS011;46248;58.364;25.582;2022-10-16T09:06:28;40.10;;;16.02;;
59766;SDS011;46248;58.364;25.582;2022-10-16T09:10:05;31.80;;;14.93;;
59766;SDS011;46248;58.364;25.582;2022-10-16T09:13:36;42.60;;;18.88;;
59766;SDS011;46248;58.364;25.582;2022-10-16T09:17:14;35.95;;;16.25;;
59766;SDS011;46248;58.364;25.582;2022-10-16T09:20:51;39.63;;;17.48;;
59766;SDS011;46248;58.364;25.582;2022-10-16T09:24:21;34.22;;;15.85;;
59766;SDS011;46248;58.364;25.582;2022-10-16T09:27:48;38.40;;;17.77;;
59766;SDS011;46248;58.364;25.582;2022-10-16T09:31:15;37.70;;;19.98;;
59766;SDS011;46248;58.364;25.582;2022-10-16T09:34:43;38.80;;;20.70;;
59766;SDS011;46248;58.364;25.582;2022-10-16T09:38:22;38.95;;;20.40;;
59766;SDS011;46248;58.364;25.582;2022-10-16T09:41:46;46.28;;;21.42;;
59766;SDS011;46248;58.364;25.582;2022-10-16T09:45:19;48.00;;;22.67;;
59766;SDS011;46248;58.364;25.582;2022-10-16T09:48:44;39.05;;;18.63;;
59766;SDS011;46248;58.364;25.582;2022-10-16T09:52:11;41.28;;;21.15;;
59766;SDS011;46248;58.364;25.582;2022-10-16T09:55:36;38.25;;;18.52;;
59766;SDS011;46248;58.364;25.582;2022-10-16T09:59:11;43.83;;;18.90;;
59766;SDS011;46248;58.364;25.582;2022-10-16T10:02:34;40.00;;;19.90;;
59766;SDS011;46248;58.364;25.582;2022-10-16T10:05:58;34.78;;;16.83;;
59766;SDS011;46248;58.364;25.582;2022-10-16T10:09:22;36.40;;;17.25;;
59766;SDS011;46248;58.364;25.582;2022-10-16T10:12:47;35.58;;;16.10;;
59766;SDS011;46248;58.364;25.582;2022-10-16T10:16:09;27.65;;;14.35;;
59766;SDS011;46248;58.364;25.582;2022-10-16T10:19:37;30.45;;;15.38;;
59766;SDS011;46248;58.364;25.582;2022-10-16T10:26:22;34.90;;;16.15;;
59766;SDS011;46248;58.364;25.582;2022-10-16T10:29:52;41.85;;;21.00;;
59766;SDS011;46248;58.364;25.582;2022-10-16T10:33:22;40.38;;;18.15;;
59766;SDS011;46248;58.364;25.582;2022-10-16T10:36:51;37.08;;;18.75;;
59766;SDS011;46248;58.364;25.582;2022-10-16T10:40:23;51.35;;;23.23;;
59766;SDS011;46248;58.364;25.582;2022-10-16T10:43:59;51.40;;;21.13;;
59766;SDS011;46248;58.364;25.582;2022-10-16T10:47:33;39.65;;;17.70;;
59766;SDS011;46248;58.364;25.582;2022-10-16T10:51:05;42.42;;;17.45;;
59766;SDS011;46248;58.364;25.582;2022-10-16T10:54:33;36.40;;;16.57;;
59766;SDS011;46248;58.364;25.582;2022-10-16T10:58:10;35.20;;;15.77;;
59766;SDS011;46248;58.364;25.582;2022-10-16T11:01:50;40.22;;;17.20;;
59766;SDS011;46248;58.364;25.582;2022-10-16T11:05:32;45.65;;;19.38;;
59766;SDS011;46248;58.364;25.582;2022-10-16T11:09:08;35.38;;;15.27;;
59766;SDS011;46248;58.364;25.582;2022-10-16T11:12:34;38.40;;;16.85;;
59766;SDS011;46248;58.364;25.582;2022-10-16T11:16:01;34.72;;;15.93;;
59766;SDS011;46248;58.364;25.582;2022-10-16T11:19:37;31.35;;;15.07;;
59766;SDS011;46248;58.364;25.582;2022-10-16T11:23:07;39.83;;;18.80;;
59766;SDS011;46248;58.364;25.582;2022-10-16T11:26:34;43.55;;;20.27;;
59766;SDS011;46248;58.364;25.582;2022-10-16T11:30:02;50.85;;;26.60;;
59766;SDS011;46248;58.364;25.582;2022-10-16T11:33:29;46.03;;;21.10;;
59766;SDS011;46248;58.364;25.582;2022-10-16T11:36:58;49.35;;;27.98;;
59766;SDS011;46248;58.364;25.582;2022-10-16T11:40:28;51.67;;;22.98;;
59766;SDS011;46248;58.364;25.582;2022-10-16T11:43:58;39.50;;;18.02;;
59766;SDS011;46248;58.364;25.582;2022-10-16T11:47:31;46.78;;;19.42;;
59766;SDS011;46248;58.364;25.582;2022-10-16T11:51:19;42.95;;;19.63;;
59766;SDS011;46248;58.364;25.582;2022-10-16T11:54:45;38.65;;;18.73;;
59766;SDS011;46248;58.364;25.582;2022-10-16T11:58:16;42.80;;;19.38;;
59766;SDS011;46248;58.364;25.582;2022-10-16T12:01:45;51.75;;;22.08;;
59766;SDS011;46248;58.364;25.582;2022-10-16T12:05:14;46.90;;;19.08;;
59766;SDS011;46248;58.364;25.582;2022-10-16T12:08:43;44.50;;;19.92;;
59766;SDS011;46248;58.364;25.582;2022-10-16T12:23:36;53.87;;;24.77;;
59766;SDS011;46248;58.364;25.582;2022-10-16T12:27:00;47.55;;;20.73;;
59766;SDS011;46248;58.364;25.582;2022-10-16T12:30:23;59.70;;;24.90;;
59766;SDS011;46248;58.364;25.582;2022-10-16T12:33:55;49.78;;;22.88;;
59766;SDS011;46248;58.364;25.582;2022-10-16T12:37:22;55.88;;;21.83;;
59766;SDS011;46248;58.364;25.582;2022-10-16T12:40:53;60.58;;;22.63;;
59766;SDS011;46248;58.364;25.582;2022-10-16T12:44:22;82.85;;;29.75;;
59766;SDS011;46248;58.364;25.582;2022-10-16T12:47:48;121.68;;;48.50;;
59766;SDS011;46248;58.364;25.582;2022-10-16T12:51:11;64.00;;;28.20;;
59766;SDS011;46248;58.364;25.582;2022-10-16T12:54:44;70.22;;;28.10;;
59766;SDS011;46248;58.364;25.582;2022-10-16T12:58:12;61.20;;;23.25;;
59766;SDS011;46248;58.364;25.582;2022-10-16T13:01:47;55.90;;;22.55;;
59766;SDS011;46248;58.364;25.582;2022-10-16T13:05:26;59.45;;;23.63;;
59766;SDS011;46248;58.364;25.582;2022-10-16T13:09:02;61.13;;;26.80;;
59766;SDS011;46248;58.364;25.582;2022-10-16T13:12:44;53.35;;;23.27;;
59766;SDS011;46248;58.364;25.582;2022-10-16T13:16:19;47.70;;;21.58;;
59766;SDS011;46248;58.364;25.582;2022-10-16T13:19:51;49.42;;;21.20;;
59766;SDS011;46248;58.364;25.582;2022-10-16T13:23:20;49.67;;;21.10;;
59766;SDS011;46248;58.364;25.582;2022-10-16T13:26:49;53.83;;;24.33;;
59766;SDS011;46248;58.364;25.582;2022-10-16T13:30:21;46.45;;;20.73;;
59766;SDS011;46248;58.364;25.582;2022-10-16T13:33:50;46.35;;;20.85;;
59766;SDS011;46248;58.364;25.582;2022-10-16T13:37:19;52.30;;;22.65;;
59766;SDS011;46248;58.364;25.582;2022-10-16T13:40:49;44.15;;;19.95;;
59766;SDS011;46248;58.364;25.582;2022-10-16T13:44:14;48.88;;;20.60;;
59766;SDS011;46248;58.364;25.582;2022-10-16T13:47:41;50.65;;;22.63;;
59766;SDS011;46248;58.364;25.582;2022-10-16T13:51:05;53.75;;;23.45;;
59766;SDS011;46248;58.364;25.582;2022-10-16T13:54:29;45.35;;;22.08;;
59766;SDS011;46248;58.364;25.582;2022-10-16T14:01:39;56.38;;;26.55;;
59766;SDS011;46248;58.364;25.582;2022-10-16T14:05:08;44.95;;;19.45;;
59766;SDS011;46248;58.364;25.582;2022-10-16T14:12:17;49.97;;;21.02;;
59766;SDS011;46248;58.364;25.582;2022-10-16T14:15:45;60.55;;;25.27;;
59766;SDS011;46248;58.364;25.582;2022-10-16T14:19:12;60.58;;;24.33;;
59766;SDS011;46248;58.364;25.582;2022-10-16T14:22:41;74.68;;;31.45;;
59766;SDS011;46248;58.364;25.582;2022-10-16T14:26:12;65.03;;;24.58;;
59766;SDS011;46248;58.364;25.582;2022-10-16T14:29:35;69.10;;;29.95;;
59766;SDS011;46248;58.364;25.582;2022-10-16T14:32:57;66.82;;;28.35;;
59766;SDS011;46248;58.364;25.582;2022-10-16T14:36:21;56.30;;;23.67;;
59766;SDS011;46248;58.364;25.582;2022-10-16T14:39:49;67.47;;;26.65;;
59766;SDS011;46248;58.364;25.582;2022-10-16T14:43:14;100.22;;;40.10;;
59766;SDS011;46248;58.364;25.582;2022-10-16T14:46:42;102.55;;;40.20;;
59766;SDS011;46248;58.364;25.582;2022-10-16T14:50:07;451.90;;;159.20;;
59766;SDS011;46248;58.364;25.582;2022-10-16T14:53:30;170.82;;;68.15;;
59766;SDS011;46248;58.364;25.582;2022-10-16T14:56:54;166.90;;;68.85;;
59766;SDS011;46248;58.364;25.582;2022-10-16T15:00:19;119.55;;;56.08;;
59766;SDS011;46248;58.364;25.582;2022-10-16T15:03:44;152.98;;;80.80;;
59766;SDS011;46248;58.364;25.582;2022-10-16T15:07:06;179.45;;;97.95;;
59766;SDS011;46248;58.364;25.582;2022-10-16T15:10:28;168.48;;;89.38;;
59766;SDS011;46248;58.364;25.582;2022-10-16T15:13:53;115.90;;;56.47;;
59766;SDS011;46248;58.364;25.582;2022-10-16T15:17:15;93.88;;;43.80;;
59766;SDS011;46248;58.364;25.582;2022-10-16T15:20:41;116.95;;;54.28;;
59766;SDS011;46248;58.364;25.582;2022-10-16T15:24:05;101.32;;;42.92;;
59766;SDS011;46248;58.364;25.582;2022-10-16T15:27:30;101.30;;;46.83;;
59766;SDS011;46248;58.364;25.582;2022-10-16T15:31:01;78.30;;;31.50;;
59766;SDS011;46248;58.364;25.582;2022-10-16T15:34:25;111.65;;;58.80;;
59766;SDS011;46248;58.364;25.582;2022-10-16T15:37:48;80.03;;;34.35;;
59766;SDS011;46248;58.364;25.582;2022-10-16T15:41:10;85.30;;;34.47;;
59766;SDS011;46248;58.364;25.582;2022-10-16T15:44:32;91.95;;;35.25;;
59766;SDS011;46248;58.364;25.582;2022-10-16T15:47:55;81.82;;;33.08;;
59766;SDS011;46248;58.364;25.582;2022-10-16T15:51:18;92.32;;;43.30;;
59766;SDS011;46248;58.364;25.582;2022-10-16T15:54:39;93.80;;;39.80;;
59766;SDS011;46248;58.364;25.582;2022-10-16T15:58:01;88.88;;;36.22;;
59766;SDS011;46248;58.364;25.582;2022-10-16T16:01:23;79.00;;;32.10;;
59766;SDS011;46248;58.364;25.582;2022-10-16T16:04:46;66.55;;;28.92;;
59766;SDS011;46248;58.364;25.582;2022-10-16T16:08:08;83.90;;;35.17;;
59766;SDS011;46248;58.364;25.582;2022-10-16T16:11:30;75.78;;;31.00;;
59766;SDS011;46248;58.364;25.582;2022-10-16T16:14:57;72.10;;;29.17;;
59766;SDS011;46248;58.364;25.582;2022-10-16T16:18:24;77.50;;;27.67;;
59766;SDS011;46248;58.364;25.582;2022-10-16T16:21:48;71.90;;;27.88;;
59766;SDS011;46248;58.364;25.582;2022-10-16T16:25:10;72.63;;;27.27;;
59766;SDS011;46248;58.364;25.582;2022-10-16T16:28:32;70.65;;;28.77;;
59766;SDS011;46248;58.364;25.582;2022-10-16T16:31:55;69.03;;;27.70;;
59766;SDS011;46248;58.364;25.582;2022-10-16T16:35:19;57.22;;;24.20;;
59766;SDS011;46248;58.364;25.582;2022-10-16T16:38:42;57.72;;;22.98;;
59766;SDS011;46248;58.364;25.582;2022-10-16T16:42:04;53.63;;;20.05;;
59766;SDS011;46248;58.364;25.582;2022-10-16T16:45:27;44.78;;;19.48;;
59766;SDS011;46248;58.364;25.582;2022-10-16T16:48:49;59.65;;;23.63;;
59766;SDS011;46248;58.364;25.582;2022-10-16T16:52:12;49.72;;;19.95;;
59766;SDS011;46248;58.364;25.582;2022-10-16T16:55:36;61.08;;;22.73;;
59766;SDS011;46248;58.364;25.582;2022-10-16T16:58:57;60.88;;;22.23;;
59766;SDS011;46248;58.364;25.582;2022-10-16T17:02:19;54.15;;;20.02;;
59766;SDS011;46248;58.364;25.582;2022-10-16T17:05:41;59.55;;;23.13;;
59766;SDS011;46248;58.364;25.582;2022-10-16T17:09:04;56.63;;;22.67;;
59766;SDS011;46248;58.364;25.582;2022-10-16T17:12:28;50.53;;;20.98;;
59766;SDS011;46248;58.364;25.582;2022-10-16T17:15:50;72.35;;;24.58;;
59766;SDS011;46248;58.364;25.582;2022-10-16T17:19:14;62.47;;;23.00;;
59766;SDS011;46248;58.364;25.582;2022-10-16T17:22:37;66.55;;;24.90;;
59766;SDS011;46248;58.364;25.582;2022-10-16T17:26:02;77.88;;;29.88;;
59766;SDS011;46248;58.364;25.582;2022-10-16T17:29:27;62.95;;;26.48;;
59766;SDS011;46248;58.364;25.582;2022-10-16T17:32:49;57.67;;;24.75;;
59766;SDS011;46248;58.364;25.582;2022-10-16T17:36:11;77.07;;;27.67;;
59766;SDS011;46248;58.364;25.582;2022-10-16T17:39:34;74.43;;;25.33;;
59766;SDS011;46248;58.364;25.582;2022-10-16T17:46:21;70.50;;;26.50;;
59766;SDS011;46248;58.364;25.582;2022-10-16T17:53:34;116.57;;;35.22;;
59766;SDS011;46248;58.364;25.582;2022-10-16T17:56:57;86.30;;;29.27;;
59766;SDS011;46248;58.364;25.582;2022-10-16T18:00:19;78.28;;;27.67;;
59766;SDS011;46248;58.364;25.582;2022-10-16T18:03:42;76.80;;;27.80;;
59766;SDS011;46248;58.364;25.582;2022-10-16T18:07:05;97.90;;;39.28;;
59766;SDS011;46248;58.364;25.582;2022-10-16T18:15:29;80.68;;;33.97;;
59766;SDS011;46248;58.364;25.582;2022-10-16T18:18:52;77.68;;;30.83;;
59766;SDS011;46248;58.364;25.582;2022-10-16T18:22:18;94.10;;;40.08;;
59766;SDS011;46248;58.364;25.582;2022-10-16T18:25:39;78.82;;;31.48;;
59766;SDS011;46248;58.364;25.582;2022-10-16T18:29:10;77.10;;;28.20;;
59766;SDS011;46248;58.364;25.582;2022-10-16T18:32:33;80.32;;;31.98;;
59766;SDS011;46248;58.364;25.582;2022-10-16T18:35:58;74.57;;;25.30;;
59766;SDS011;46248;58.364;25.582;2022-10-16T18:39:21;67.63;;;23.83;;
59766;SDS011;46248;58.364;25.582;2022-10-16T18:42:43;77.13;;;27.92;;
59766;SDS011;46248;58.364;25.582;2022-10-16T18:46:06;84.07;;;32.70;;
59766;SDS011;46248;58.364;25.582;2022-10-16T18:49:30;80.03;;;26.35;;
59766;SDS011;46248;58.364;25.582;2022-10-16T18:52:53;70.88;;;23.48;;
59766;SDS011;46248;58.364;25.582;2022-10-16T18:56:15;80.38;;;28.17;;
59766;SDS011;46248;58.364;25.582;2022-10-16T18:59:39;79.90;;;30.27;;
59766;SDS011;46248;58.364;25.582;2022-10-16T19:03:01;75.82;;;25.10;;
59766;SDS011;46248;58.364;25.582;2022-10-16T19:06:24;89.07;;;32.60;;
59766;SDS011;46248;58.364;25.582;2022-10-16T19:09:48;83.82;;;29.25;;
59766;SDS011;46248;58.364;25.582;2022-10-16T19:13:10;76.57;;;26.38;;
59766;SDS011;46248;58.364;25.582;2022-10-16T19:16:33;71.18;;;24.98;;
59766;SDS011;46248;58.364;25.582;2022-10-16T19:19:56;59.30;;;20.35;;
59766;SDS011;46248;58.364;25.582;2022-10-16T19:23:18;56.00;;;21.20;;
59766;SDS011;46248;58.364;25.582;2022-10-16T19:26:41;56.83;;;21.17;;
59766;SDS011;46248;58.364;25.582;2022-10-16T19:30:05;59.20;;;20.45;;
59766;SDS011;46248;58.364;25.582;2022-10-16T19:33:27;54.00;;;21.48;;
59766;SDS011;46248;58.364;25.582;2022-10-16T19:36:51;51.30;;;18.73;;
59766;SDS011;46248;58.364;25.582;2022-10-16T19:40:14;55.72;;;19.23;;
59766;SDS011;46248;58.364;25.582;2022-10-16T19:43:37;49.75;;;16.92;;
59766;SDS011;46248;58.364;25.582;2022-10-16T19:47:00;39.70;;;15.43;;
59766;SDS011;46248;58.364;25.582;2022-10-16T19:50:21;48.40;;;16.00;;
59766;SDS011;46248;58.364;25.582;2022-10-16T19:53:44;95.10;;;32.40;;
59766;SDS011;46248;58.364;25.582;2022-10-16T19:57:06;58.30;;;24.75;;
59766;SDS011;46248;58.364;25.582;2022-10-16T20:00:30;49.88;;;19.27;;
59766;SDS011;46248;58.364;25.582;2022-10-16T20:03:52;54.58;;;20.40;;
59766;SDS011;46248;58.364;25.582;2022-10-16T20:07:14;42.50;;;17.13;;
59766;SDS011;46248;58.364;25.582;2022-10-16T20:10:36;48.65;;;16.42;;
59766;SDS011;46248;58.364;25.582;2022-10-16T20:13:58;43.78;;;15.85;;
59766;SDS011;46248;58.364;25.582;2022-10-16T20:17:23;48.60;;;16.77;;
59766;SDS011;46248;58.364;25.582;2022-10-16T20:20:47;65.22;;;20.27;;
59766;SDS011;46248;58.364;25.582;2022-10-16T21:04:11;34.63;;;12.40;;
59766;SDS011;46248;58.364;25.582;2022-10-16T21:07:33;39.15;;;14.18;;
59766;SDS011;46248;58.364;25.582;2022-10-16T21:10:56;43.97;;;13.50;;
59766;SDS011;46248;58.364;25.582;2022-10-16T21:14:18;39.20;;;13.98;;
59766;SDS011;46248;58.364;25.582;2022-10-16T21:17:41;40.30;;;14.13;;
59766;SDS011;46248;58.364;25.582;2022-10-16T21:21:04;33.80;;;12.25;;
59766;SDS011;46248;58.364;25.582;2022-10-16T21:24:27;30.10;;;11.77;;
59766;SDS011;46248;58.364;25.582;2022-10-16T21:36:34;32.83;;;12.60;;
59766;SDS011;46248;58.364;25.582;2022-10-16T21:39:57;33.50;;;12.65;;
59766;SDS011;46248;58.364;25.582;2022-10-16T21:43:19;30.02;;;11.98;;
59766;SDS011;46248;58.364;25.582;2022-10-16T21:46:41;32.22;;;11.15;;
59766;SDS011;46248;58.364;25.582;2022-10-16T21:50:05;31.02;;;9.95;;
59766;SDS011;46248;58.364;25.582;2022-10-16T21:53:28;25.00;;;9.65;;
59766;SDS011;46248;58.364;25.582;2022-10-16T21:56:50;26.83;;;8.98;;
59766;SDS011;46248;58.364;25.582;2022-10-16T22:00:12;21.63;;;8.15;;
59766;SDS011;46248;58.364;25.582;2022-10-16T22:03:35;26.20;;;9.38;;
59766;SDS011;46248;58.364;25.582;2022-10-16T22:06:57;31.58;;;8.90;;
59766;SDS011;46248;58.364;25.582;2022-10-16T22:10:20;21.15;;;8.40;;
59766;SDS011;46248;58.364;25.582;2022-10-16T22:13:43;22.42;;;7.53;;
59766;SDS011;46248;58.364;25.582;2022-10-16T22:17:05;23.17;;;9.77;;
59766;SDS011;46248;58.364;25.582;2022-10-16T22:20:27;19.00;;;7.88;;
59766;SDS011;46248;58.364;25.582;2022-10-16T22:23:49;26.35;;;9.02;;